Flight Track Log - Related Links

Times and Time Zones

All times are in EDT time to prevent confusion due to time zone crossing. See the UAL3740 flight status page for this flight to view local times or setup timezone preferences in your user account.

Time Position Orientation Groundspeed Altitude Reporting Facility
EDT Latitude Longitude Course Direction KTS km/h feet Rate Location/Type
Mon 10:14:58 41.7833 -71.4378 345° North 200 370 2.800  Level Boston Center
Mon 10:16:51 41.8758 -71.5589 316° Northwest 272 504 7.700 2.566 Climbing Boston Center
Mon 10:17:51 41.9017 -71.6619 289° West 278 515 10.200 1.950 Climbing Boston Center
Mon 10:18:51 41.9378 -71.7647 295° West 321 594 11.600 2.050 Climbing Boston Center
Mon 10:19:51 41.9928 -71.8925 300° West 351 650 14.300 1.700 Climbing Boston Center
Mon 10:20:51 42.0411 -72.0039 300° West 371 687 15.000 350 Climbing Boston Center
Mon 10:21:51 42.1042 -72.1492 300° West 397 735 15.000 900 Level Boston Center
Mon 10:22:51 42.1336 -72.2722 288° West 397 735 16.800 2.100 Climbing Boston Center
Mon 10:23:51 42.1419 -72.4119 275° West 377 698 19.200 2.200 Climbing Boston Center
Mon 10:24:51 42.1522 -72.5606 275° West 377 698 21.200 1.750 Climbing Boston Center
Mon 10:25:51 42.1583 -72.6978 273° West 370 686 22.700 1.400 Climbing Boston Center
Mon 10:26:51 42.1058 -72.8178 240° Southwest 350 649 24.000 1.000 Climbing Boston Center
Mon 10:27:51 42.0408 -72.9097 226° Southwest 356 660 24.700 1.250 Climbing Boston Center
Mon 10:28:51 41.9508 -73.0264 224° Southwest 395 732 26.500 1.600 Climbing Boston Center
Mon 10:29:51 41.8753 -73.1289 225° Southwest 406 752 27.900 1.700 Climbing Boston Center
Mon 10:30:51 41.7994 -73.2336 226° Southwest 399 739 29.900 1.050 Climbing Boston Center
Mon 10:31:51 41.7217 -73.3328 224° Southwest 387 716 30.000 50 Climbing Boston Center
Mon 10:32:51 41.6436 -73.4403 226° Southwest 387 716 30.000  Level Boston Center
Mon 10:33:51 41.5656 -73.5417 224° Southwest 392 726 30.000  Level Boston Center
Mon 10:34:51 41.4917 -73.6372 224° Southwest 386 715 30.000  Level Boston Center
Mon 10:35:51 41.4175 -73.7411 226° Southwest 386 715 30.000  Level Boston Center
Mon 10:37:03 41.3950 -73.9017 259° West 361 668 30.000  Level New York Center
Mon 10:38:04 41.4075 -74.0517 276° West 373 690 30.000  Level New York Center
Mon 10:39:04 41.3625 -74.1683 243° Southwest 358 663 30.000  Level New York Center
Mon 10:40:04 41.2856 -74.2389 215° Southwest 357 661 30.000  Level New York Center
Mon 10:41:05 41.1958 -74.3197 214° Southwest 364 674 30.000 -397 Level New York Center
Mon 10:42:05 41.1100 -74.3978 214° Southwest 383 710 29.200 -908 Descending New York Center
Mon 10:43:04 41.0242 -74.4786 215° Southwest 383 710 28.200 -600 Descending New York Center
Mon 10:44:05 40.9364 -74.5589 215° Southwest 388 719 28.000 -101 Descending New York Center
Mon 10:45:03 40.8722 -74.6678 232° Southwest 374 692 28.000  Level New York Center
Mon 10:46:04 40.8339 -74.8192 252° West 374 692 28.000  Level New York Center
Mon 10:47:05 40.7939 -74.9483 248° West 390 723 28.000  Level New York Center
Mon 10:48:05 40.7536 -75.0883 249° West 402 745 28.000  Level New York Center
Mon 10:49:03 40.7272 -75.2344 257° West 408 756 28.000  Level New York Center
Mon 10:50:04 40.6600 -75.3586 235° Southwest 414 766 28.000  Level New York Center
Mon 10:51:05 40.5906 -75.4825 234° Southwest 414 766 28.000 -908 Level New York Center
Mon 10:52:03 40.5233 -75.5981 233° Southwest 419 776 26.200 -2.186 Descending New York Center
Mon 10:53:03 40.4581 -75.7136 233° Southwest 414 766 23.700 -2.500 Descending New York Center
Mon 10:54:03 40.3906 -75.8286 232° Southwest 414 766 21.200 -1.850 Descending New York Center
Mon 10:55:03 40.3211 -75.9433 232° Southwest 409 758 20.000 -700 Descending New York Center
Mon 10:56:03 40.2600 -76.0503 233° Southwest 396 734 19.800 -645 Descending New York Center
Mon 10:57:04 40.1989 -76.1572 233° Southwest 382 708 18.700 -744 Descending New York Center
Mon 10:58:04 40.1378 -76.2611 232° Southwest 382 708 18.300 -832 Descending New York Center
Mon 11:00:26 40.0167 -76.5333 240° Southwest 353 653 15.900 -950 Descending Potomac TRACON
Mon 11:01:26 39.9667 -76.6333 237° Southwest 354 655 15.100 -446 Descending Potomac TRACON
Mon 11:02:27 39.9000 -76.7500 233° Southwest 361 668 15.000 -52 Descending Potomac TRACON
Mon 11:03:21 39.8667 -76.8333 242° Southwest 348 644 15.000 -526 Level Potomac TRACON
Mon 11:04:21 39.8167 -76.9500 241° Southwest 347 642 14.000 -1.100 Descending Potomac TRACON
Mon 11:05:21 39.7667 -77.0500 237° Southwest 346 641 12.800 -1.350 Descending Potomac TRACON
Mon 11:06:21 39.7167 -77.1667 241° Southwest 344 637 11.300 -1.409 Descending Potomac TRACON
Mon 11:07:16 39.6667 -77.2500 232° Southwest 326 604 10.100 -678 Descending Potomac TRACON
Mon 11:08:16 39.6167 -77.3333 232° Southwest 277 513 10.000 -250 Descending Potomac TRACON
Mon 11:09:16 39.5500 -77.3500 191° South 272 504 9.600 -700 Descending Potomac TRACON
Mon 11:10:16 39.4833 -77.3500 180° South 269 499 8.600 -992 Descending Potomac TRACON
Mon 11:11:17 39.4000 -77.3667 189° South 271 502 7.600 -992 Descending Potomac TRACON
Mon 11:12:17 39.3333 -77.3667 180° South 265 491 6.600 -950 Descending Potomac TRACON
Mon 11:13:17 39.2500 -77.3667 180° South 261 483 5.700 -991 Descending Potomac TRACON
Mon 11:14:12 39.1833 -77.3667 180° South 260 481 4.700 -887 Descending Potomac TRACON
Mon 11:15:12 39.1167 -77.3667 180° South 252 467 4.000 -300 Descending Potomac TRACON
Mon 11:16:12 39.0500 -77.3500 169° South 249 462 4.100  Climbing Potomac TRACON
Mon 11:17:13 38.9833 -77.3667 191° South 253 468 4.000 -365 Descending Potomac TRACON
Mon 11:18:07 38.9167 -77.3500 169° South 232 430 3.400 -526 Descending Potomac TRACON
Mon 11:19:07 38.8500 -77.3667 191° South 229 425 3.000 -198 Descending Potomac TRACON
Mon 11:20:08 38.7833 -77.3667 180° South 224 415 3.000 -446 Level Potomac TRACON
Mon 11:21:08 38.7500 -77.4000 218° Southwest 215 398 2.100 -500 Descending Potomac TRACON
Mon 11:22:08 38.7833 -77.4333 322° Northwest 196 364 2.000  Descending Potomac TRACON
Mon 11:23:08 38.8333 -77.4333 360° North 160 296 2.100 -300 Climbing Potomac TRACON
Mon 11:24:08 38.8667 -77.4333 360° North 144 267 1.400 -700 Descending Potomac TRACON

Login

Don't have an account? Register now (free) for customized features, flight alerts, and more!